Time;durP1;ratioP1;P1;durP2;ratioP2;P2;SDS_P1;SDS_P2;PMS_P1;PMS_P2;Temp;Humidity;BMP_temperature;BMP_pressure;BME280_temperature;BME280_humidity;BME280_pressure;Samples;Min_cycle;Max_cycle;Signal;HPM_P1;HPM_P2
2023/01/22 00:00:31;;;;;;;9.47;7.10;;;3.80;95.00;;;;;;935285;149;27689;-80
2023/01/22 00:02:58;;;;;;;9.97;7.80;;;3.70;95.10;;;;;;935521;149;27309;-80
2023/01/22 00:05:24;;;;;;;9.70;7.33;;;3.80;95.20;;;;;;934394;149;27328;-79
2023/01/22 00:07:51;;;;;;;8.17;6.70;;;3.80;95.30;;;;;;934953;149;27467;-80
2023/01/22 00:10:17;;;;;;;9.90;7.47;;;3.80;95.30;;;;;;935095;149;27356;-79
2023/01/22 00:12:44;;;;;;;10.73;7.30;;;3.80;95.40;;;;;;933914;149;27332;-79
2023/01/22 00:15:11;;;;;;;8.87;7.27;;;3.80;95.40;;;;;;934590;149;27348;-80
2023/01/22 00:17:37;;;;;;;8.43;6.93;;;3.80;95.40;;;;;;934099;149;27308;-79
2023/01/22 00:20:04;;;;;;;9.20;7.73;;;3.80;95.50;;;;;;935472;149;27465;-80
2023/01/22 00:22:30;;;;;;;8.77;7.00;;;3.80;95.50;;;;;;935068;149;27498;-80
2023/01/22 00:24:57;;;;;;;8.90;6.87;;;3.80;95.50;;;;;;934302;149;27254;-80
2023/01/22 00:27:24;;;;;;;10.77;7.80;;;3.80;95.50;;;;;;934292;149;28061;-79
2023/01/22 00:29:50;;;;;;;10.30;7.47;;;3.80;95.40;;;;;;934830;150;27351;-78
2023/01/22 00:32:17;;;;;;;9.50;7.40;;;3.80;95.50;;;;;;934259;149;27407;-79
2023/01/22 00:34:49;;;;;;;8.37;6.97;;;3.80;95.50;;;;;;933903;149;27454;-80
2023/01/22 00:37:10;;;;;;;8.60;6.83;;;3.80;95.50;;;;;;934884;149;27840;-80
2023/01/22 00:39:36;;;;;;;7.30;6.37;;;3.80;95.50;;;;;;935266;149;27362;-80
2023/01/22 00:42:03;;;;;;;7.70;6.47;;;3.80;95.50;;;;;;935256;149;27437;-78
2023/01/22 00:44:30;;;;;;;8.27;6.33;;;3.80;95.60;;;;;;911688;150;27420;-80
2023/01/22 00:46:56;;;;;;;7.47;6.40;;;3.80;95.60;;;;;;932525;149;27345;-80
2023/01/22 00:49:23;;;;;;;6.73;6.03;;;3.80;95.70;;;;;;930976;151;27321;-79
2023/01/22 00:51:49;;;;;;;7.30;6.23;;;3.80;95.70;;;;;;931335;151;27390;-78
2023/01/22 00:54:16;;;;;;;8.60;6.43;;;3.80;95.70;;;;;;931233;153;28120;-79
2023/01/22 00:56:43;;;;;;;7.67;6.23;;;3.80;95.80;;;;;;923494;154;27338;-80
2023/01/22 00:59:09;;;;;;;8.07;6.30;;;3.80;95.80;;;;;;924584;154;27271;-80
2023/01/22 01:01:36;;;;;;;6.93;5.90;;;3.80;95.90;;;;;;925556;154;27440;-80
2023/01/22 01:04:02;;;;;;;7.80;6.33;;;3.80;95.90;;;;;;931427;150;27332;-80
2023/01/22 01:06:29;;;;;;;6.47;5.60;;;3.80;95.90;;;;;;938403;150;27981;-80
2023/01/22 01:08:56;;;;;;;6.97;5.70;;;3.80;95.90;;;;;;938300;152;27272;-80
2023/01/22 01:11:22;;;;;;;6.67;5.80;;;3.80;95.90;;;;;;938409;152;27308;-79
2023/01/22 01:13:49;;;;;;;7.70;5.83;;;3.80;95.90;;;;;;938213;152;27437;-78
2023/01/22 01:16:15;;;;;;;6.67;5.50;;;3.80;96.00;;;;;;937690;150;27350;-80
2023/01/22 01:18:42;;;;;;;7.23;5.40;;;3.80;96.10;;;;;;937825;152;28571;-80
2023/01/22 01:21:11;;;;;;;7.13;5.87;;;3.80;96.20;;;;;;937969;150;27733;-79
2023/01/22 01:23:35;;;;;;;5.47;4.83;;;3.80;96.20;;;;;;937317;150;27915;-79
2023/01/22 01:26:08;;;;;;;5.47;4.60;;;3.80;96.20;;;;;;922008;152;27309;-79
2023/01/22 01:28:37;;;;;;;5.83;4.87;;;3.80;96.20;;;;;;935952;151;27494;-81
2023/01/22 01:31:03;;;;;;;8.37;5.83;;;3.80;96.20;;;;;;934302;153;27321;-80
2023/01/22 01:33:30;;;;;;;6.23;5.30;;;3.90;96.40;;;;;;933415;153;27379;-80
2023/01/22 01:35:59;;;;;;;5.47;4.63;;;3.90;96.40;;;;;;933853;150;27297;-79
2023/01/22 01:38:26;;;;;;;5.27;4.53;;;3.90;96.80;;;;;;933197;153;27505;-80
2023/01/22 01:40:52;;;;;;;5.37;4.70;;;3.90;96.50;;;;;;934386;150;27286;-79
2023/01/22 01:43:19;;;;;;;6.77;4.70;;;3.90;96.50;;;;;;933733;150;27285;-80
2023/01/22 01:45:45;;;;;;;5.07;4.57;;;3.90;96.50;;;;;;934412;149;27380;-80
2023/01/22 01:48:27;;;;;;;4.50;4.00;;;3.90;96.50;;;;;;932018;150;27806;-80
2023/01/22 01:50:53;;;;;;;4.90;4.43;;;4.00;96.50;;;;;;933937;150;27340;-80
2023/01/22 01:53:20;;;;;;;4.30;3.90;;;4.00;96.40;;;;;;928822;150;27430;-80
2023/01/22 01:55:46;;;;;;;4.47;4.07;;;4.00;96.50;;;;;;933565;150;27373;-78
2023/01/22 01:58:20;;;;;;;5.20;4.47;;;4.00;96.50;;;;;;934669;150;27368;-79
2023/01/22 02:00:40;;;;;;;4.93;4.43;;;4.00;96.50;;;;;;931809;150;27344;-80
2023/01/22 02:03:06;;;;;;;4.33;3.93;;;4.00;96.50;;;;;;933705;150;27313;-80
2023/01/22 02:05:33;;;;;;;4.03;3.63;;;4.00;96.50;;;;;;933893;150;28308;-80
2023/01/22 02:07:59;;;;;;;4.20;3.63;;;4.00;96.50;;;;;;932910;150;27490;-80
2023/01/22 02:10:26;;;;;;;4.10;3.70;;;4.00;96.50;;;;;;933856;150;27924;-79
2023/01/22 02:12:53;;;;;;;3.90;3.50;;;4.00;96.50;;;;;;934178;150;27281;-80
2023/01/22 02:15:19;;;;;;;4.47;3.70;;;4.10;96.50;;;;;;933273;150;27356;-80
2023/01/22 02:17:46;;;;;;;4.43;4.03;;;4.10;96.50;;;;;;932721;150;27434;-79
2023/01/22 02:20:12;;;;;;;4.13;3.57;;;4.10;96.40;;;;;;933287;150;27379;-80
2023/01/22 02:22:39;;;;;;;4.47;3.40;;;4.10;96.40;;;;;;933967;150;27352;-80
2023/01/22 02:25:06;;;;;;;3.80;3.40;;;4.10;96.40;;;;;;933180;150;27383;-80
2023/01/22 02:27:32;;;;;;;3.80;3.50;;;4.10;96.40;;;;;;933510;150;27360;-79
2023/01/22 02:29:59;;;;;;;4.77;3.70;;;4.10;96.40;;;;;;933474;150;27361;-80
2023/01/22 02:32:27;;;;;;;4.10;3.47;;;4.10;96.40;;;;;;932794;150;27437;-80
2023/01/22 02:34:52;;;;;;;3.83;3.53;;;4.10;96.40;;;;;;932778;150;27442;-80
2023/01/22 02:37:18;;;;;;;4.03;3.30;;;4.10;96.40;;;;;;934457;150;27413;-80
2023/01/22 02:39:45;;;;;;;3.70;3.40;;;4.10;96.40;;;;;;933850;150;27435;-80
2023/01/22 02:42:12;;;;;;;3.30;3.00;;;4.10;96.50;;;;;;933753;150;27353;-80
2023/01/22 02:44:38;;;;;;;3.57;3.27;;;4.10;96.50;;;;;;934871;150;27696;-80
2023/01/22 02:47:05;;;;;;;3.57;3.27;;;4.20;96.60;;;;;;933168;149;27506;-80
2023/01/22 02:49:31;;;;;;;3.33;3.10;;;4.20;96.50;;;;;;940686;149;27364;-79
2023/01/22 02:51:58;;;;;;;3.40;3.10;;;4.20;96.50;;;;;;940342;152;27351;-79
2023/01/22 02:54:24;;;;;;;4.03;3.63;;;4.20;96.50;;;;;;941543;150;27477;-79
2023/01/22 02:56:51;;;;;;;3.20;2.90;;;4.20;96.50;;;;;;940574;152;27342;-80
2023/01/22 02:59:18;;;;;;;3.47;3.17;;;4.20;96.50;;;;;;940580;152;27465;-81
2023/01/22 03:01:44;;;;;;;3.10;2.80;;;4.20;96.50;;;;;;940890;150;27389;-80
2023/01/22 03:04:11;;;;;;;3.43;3.13;;;4.20;96.50;;;;;;941322;152;27363;-79
2023/01/22 03:06:37;;;;;;;3.13;2.93;;;4.20;96.50;;;;;;942687;149;27356;-78
2023/01/22 03:09:04;;;;;;;3.63;3.33;;;4.20;96.40;;;;;;942852;152;27332;-79
2023/01/22 03:11:31;;;;;;;3.30;3.00;;;4.20;96.40;;;;;;944260;145;27336;-78
2023/01/22 03:22:11;;;;;;;2.70;2.50;;;4.20;96.40;;;;;;940928;152;27367;-81
2023/01/22 03:24:38;;;;;;;3.47;3.17;;;4.20;96.30;;;;;;941319;149;27421;-81
2023/01/22 03:27:04;;;;;;;2.77;2.57;;;4.20;96.30;;;;;;941508;152;27460;-79
2023/01/22 03:29:31;;;;;;;2.80;2.60;;;4.20;96.40;;;;;;941412;152;27387;-80
2023/01/22 03:31:58;;;;;;;3.00;2.80;;;4.20;96.40;;;;;;940695;152;27405;-79
2023/01/22 03:34:24;;;;;;;3.27;3.00;;;4.20;96.50;;;;;;940176;152;27326;-79
2023/01/22 03:36:51;;;;;;;3.47;3.13;;;4.20;96.40;;;;;;941249;149;27409;-79
2023/01/22 03:39:17;;;;;;;3.33;3.03;;;4.20;96.40;;;;;;939645;152;27446;-79
2023/01/22 03:41:44;;;;;;;2.90;2.70;;;4.20;96.40;;;;;;940785;152;27340;-79
2023/01/22 03:44:13;;;;;;;3.23;2.93;;;4.20;96.40;;;;;;941089;152;27273;-79
2023/01/22 03:46:38;;;;;;;3.07;2.77;;;4.20;96.40;;;;;;940746;152;27279;-79
2023/01/22 03:49:04;;;;;;;3.13;2.93;;;4.20;96.40;;;;;;937402;149;27459;-79
2023/01/22 03:51:30;;;;;;;3.17;2.97;;;4.20;96.40;;;;;;932463;150;27365;-79
2023/01/22 03:53:57;;;;;;;3.20;2.90;;;4.20;96.40;;;;;;933196;150;27333;-79
2023/01/22 03:56:23;;;;;;;2.60;2.40;;;4.20;96.40;;;;;;933053;150;27332;-78
2023/01/22 03:58:50;;;;;;;2.90;2.70;;;4.20;96.50;;;;;;934013;150;27333;-79
2023/01/22 04:01:17;;;;;;;2.73;2.53;;;4.20;96.50;;;;;;934670;150;27743;-79
2023/01/22 04:03:43;;;;;;;2.80;2.60;;;4.20;96.50;;;;;;934231;150;27345;-78
2023/01/22 04:06:10;;;;;;;3.10;2.80;;;4.20;96.60;;;;;;933922;150;27356;-79
2023/01/22 04:08:36;;;;;;;2.97;2.77;;;4.20;96.50;;;;;;933505;150;27901;-79
2023/01/22 04:11:03;;;;;;;2.53;2.40;;;4.20;96.50;;;;;;932246;150;27300;-79
2023/01/22 04:13:30;;;;;;;3.00;2.80;;;4.20;96.50;;;;;;932772;150;27361;-79
2023/01/22 04:15:56;;;;;;;2.90;2.70;;;4.20;96.60;;;;;;933446;150;27458;-79
2023/01/22 04:18:23;;;;;;;2.63;2.43;;;4.20;96.60;;;;;;933668;150;27326;-79
2023/01/22 04:20:49;;;;;;;2.83;2.63;;;4.20;96.60;;;;;;932273;150;27273;-79
2023/01/22 04:23:16;;;;;;;2.87;2.67;;;4.20;96.60;;;;;;932980;150;27381;-79
2023/01/22 04:25:43;;;;;;;4.90;2.83;;;4.20;96.70;;;;;;933200;150;27509;-79
2023/01/22 04:28:13;;;;;;;2.93;2.73;;;4.20;96.70;;;;;;933711;150;27290;-79
2023/01/22 04:30:36;;;;;;;2.80;2.60;;;4.20;96.70;;;;;;932877;150;27256;-79
2023/01/22 04:33:02;;;;;;;3.13;2.93;;;4.20;96.70;;;;;;932054;150;27350;-79
2023/01/22 04:35:29;;;;;;;2.93;2.73;;;4.20;96.70;;;;;;933286;150;27376;-79
2023/01/22 04:37:55;;;;;;;2.57;2.37;;;4.20;96.80;;;;;;933321;150;27358;-79
2023/01/22 04:40:22;;;;;;;3.00;2.70;;;4.30;96.80;;;;;;933626;150;27340;-79
2023/01/22 04:42:49;;;;;;;2.80;2.60;;;4.20;96.70;;;;;;932440;150;27398;-79
2023/01/22 04:45:15;;;;;;;2.47;2.27;;;4.30;96.80;;;;;;933666;150;27422;-79
2023/01/22 04:47:42;;;;;;;2.90;2.60;;;4.30;96.90;;;;;;933791;150;27435;-79
2023/01/22 04:50:08;;;;;;;2.63;2.43;;;4.30;96.80;;;;;;932818;150;27997;-79
2023/01/22 04:52:35;;;;;;;2.80;2.60;;;4.30;96.80;;;;;;933829;150;27316;-79
2023/01/22 04:55:02;;;;;;;2.87;2.53;;;4.30;96.70;;;;;;931739;150;27388;-79
2023/01/22 04:57:28;;;;;;;2.43;2.23;;;4.30;96.80;;;;;;933533;150;27435;-79
2023/01/22 04:59:55;;;;;;;2.77;2.57;;;4.30;96.70;;;;;;933699;153;27589;-79
2023/01/22 05:02:21;;;;;;;2.47;2.27;;;4.30;96.70;;;;;;933088;150;27329;-79
2023/01/22 05:04:48;;;;;;;2.07;1.97;;;4.40;96.70;;;;;;917676;152;27364;-79
2023/01/22 05:07:14;;;;;;;2.87;2.67;;;4.40;96.80;;;;;;919674;152;27392;-79
2023/01/22 05:09:41;;;;;;;2.53;2.33;;;4.40;96.90;;;;;;914103;152;27403;-79
2023/01/22 05:12:08;;;;;;;2.87;2.47;;;4.40;96.80;;;;;;933004;150;27356;-79
2023/01/22 05:14:34;;;;;;;2.83;2.63;;;4.40;96.80;;;;;;933722;150;27270;-79
2023/01/22 05:17:01;;;;;;;2.63;2.43;;;4.40;96.80;;;;;;933514;150;27819;-79
2023/01/22 05:19:27;;;;;;;2.80;2.47;;;4.40;96.40;;;;;;933361;150;27729;-79
2023/01/22 05:21:54;;;;;;;2.47;2.27;;;4.40;96.70;;;;;;932599;150;27486;-79
2023/01/22 05:24:21;;;;;;;2.63;2.43;;;4.40;96.70;;;;;;933047;150;27290;-79
2023/01/22 05:26:47;;;;;;;4.37;2.53;;;4.40;96.70;;;;;;932545;150;27313;-79
2023/01/22 05:29:14;;;;;;;2.07;1.97;;;4.40;96.70;;;;;;933747;150;27308;-79
2023/01/22 05:31:40;;;;;;;2.50;2.30;;;4.40;96.60;;;;;;933928;150;27348;-79
2023/01/22 05:34:07;;;;;;;2.60;2.20;;;4.50;96.60;;;;;;933567;150;27357;-79
2023/01/22 05:36:33;;;;;;;2.50;2.30;;;4.50;96.60;;;;;;933775;150;27254;-79
2023/01/22 05:39:00;;;;;;;2.27;2.17;;;4.50;96.60;;;;;;933616;150;27486;-79
2023/01/22 05:41:27;;;;;;;2.60;2.40;;;4.50;96.50;;;;;;932335;150;27321;-79
2023/01/22 05:43:53;;;;;;;3.13;2.60;;;4.50;96.90;;;;;;933541;150;27438;-79
2023/01/22 05:46:20;;;;;;;2.30;2.20;;;4.50;96.50;;;;;;934269;150;28626;-79
2023/01/22 05:48:46;;;;;;;2.20;2.10;;;4.50;96.50;;;;;;933152;153;27317;-79
2023/01/22 05:51:13;;;;;;;2.70;2.50;;;4.50;96.50;;;;;;950150;147;27439;-79
2023/01/22 05:53:40;;;;;;;2.80;2.60;;;4.50;96.40;;;;;;953091;147;27302;-79
2023/01/22 05:56:06;;;;;;;2.63;2.43;;;4.40;96.40;;;;;;954001;147;27375;-79
2023/01/22 05:58:33;;;;;;;2.53;2.33;;;4.50;96.40;;;;;;953930;147;27379;-79
2023/01/22 06:00:59;;;;;;;2.53;2.37;;;4.50;96.50;;;;;;952900;147;27282;-79
2023/01/22 06:03:26;;;;;;;2.50;2.30;;;4.50;96.60;;;;;;954277;147;27428;-79
2023/01/22 06:05:59;;;;;;;3.90;2.77;;;4.50;96.60;;;;;;953552;147;27634;-79
2023/01/22 06:08:25;;;;;;;2.63;2.43;;;4.50;96.50;;;;;;953784;147;27385;-79
2023/01/22 06:10:52;;;;;;;2.90;2.70;;;4.50;96.50;;;;;;953950;147;27301;-79
2023/01/22 06:13:18;;;;;;;2.60;2.40;;;4.50;96.50;;;;;;951327;147;27336;-79
2023/01/22 06:15:45;;;;;;;2.83;2.57;;;4.50;96.50;;;;;;952745;147;27329;-79
2023/01/22 06:18:11;;;;;;;2.70;2.50;;;4.50;96.50;;;;;;953077;148;27446;-79
2023/01/22 06:20:38;;;;;;;2.60;2.40;;;4.50;96.50;;;;;;954669;147;27382;-78
2023/01/22 06:23:06;;;;;;;2.60;2.40;;;4.50;96.40;;;;;;952964;147;27364;-78
2023/01/22 06:25:31;;;;;;;2.83;2.63;;;4.50;96.40;;;;;;954142;147;27321;-78
2023/01/22 06:27:58;;;;;;;2.90;2.70;;;4.60;96.40;;;;;;953828;147;27393;-79
2023/01/22 06:30:24;;;;;;;2.27;2.17;;;4.60;96.40;;;;;;953667;148;27458;-79
2023/01/22 06:32:54;;;;;;;2.47;2.30;;;4.60;96.40;;;;;;953012;147;27293;-79
2023/01/22 06:35:20;;;;;;;2.60;2.40;;;4.60;96.40;;;;;;952089;147;27423;-79
2023/01/22 06:37:47;;;;;;;3.33;3.03;;;4.60;96.40;;;;;;952923;147;27270;-79
2023/01/22 06:40:14;;;;;;;6.03;3.57;;;4.60;96.40;;;;;;952726;147;27457;-78
2023/01/22 06:42:40;;;;;;;5.20;3.97;;;4.60;96.30;;;;;;952693;147;27446;-78
2023/01/22 06:45:07;;;;;;;8.27;4.53;;;4.60;96.30;;;;;;954272;148;27306;-78
2023/01/22 06:47:33;;;;;;;4.63;3.77;;;4.60;96.20;;;;;;953822;147;27314;-79
2023/01/22 06:50:00;;;;;;;3.77;3.33;;;4.60;96.20;;;;;;953237;147;27370;-79
2023/01/22 06:52:27;;;;;;;2.70;2.50;;;4.60;96.20;;;;;;935616;149;27392;-79
2023/01/22 06:54:53;;;;;;;2.80;2.50;;;4.70;96.20;;;;;;935066;149;27266;-79
2023/01/22 06:57:20;;;;;;;2.50;2.30;;;4.70;96.10;;;;;;935574;149;28305;-79
2023/01/22 06:59:46;;;;;;;2.67;2.47;;;4.70;96.20;;;;;;934740;150;27330;-79
2023/01/22 07:02:16;;;;;;;3.47;3.17;;;4.60;96.10;;;;;;934862;149;27383;-79
2023/01/22 07:04:42;;;;;;;2.23;2.13;;;4.70;96.10;;;;;;933045;150;27474;-79
2023/01/22 07:07:09;;;;;;;2.40;2.30;;;4.70;96.10;;;;;;934747;149;27406;-79
2023/01/22 07:09:35;;;;;;;2.40;2.30;;;4.70;96.10;;;;;;934396;149;27273;-79
2023/01/22 07:12:02;;;;;;;2.53;2.43;;;4.70;96.10;;;;;;935525;149;27364;-79
2023/01/22 07:14:29;;;;;;;2.20;2.10;;;4.70;96.00;;;;;;934596;149;27404;-79
2023/01/22 07:16:55;;;;;;;2.20;2.10;;;4.70;96.00;;;;;;934960;149;27299;-79
2023/01/22 07:19:22;;;;;;;2.27;2.10;;;4.70;96.00;;;;;;935327;149;27364;-79
2023/01/22 07:21:48;;;;;;;2.50;2.40;;;4.60;96.00;;;;;;933105;149;27391;-79
2023/01/22 07:24:15;;;;;;;2.60;2.40;;;4.70;96.00;;;;;;934876;149;27363;-79
2023/01/22 07:26:42;;;;;;;2.50;2.30;;;4.70;96.00;;;;;;935586;149;27421;-79
2023/01/22 07:29:08;;;;;;;2.27;2.17;;;4.70;96.10;;;;;;935254;149;27356;-79
2023/01/22 07:31:35;;;;;;;2.97;2.67;;;4.70;96.10;;;;;;934183;149;27321;-79
2023/01/22 07:34:01;;;;;;;2.67;2.40;;;4.70;96.10;;;;;;934541;149;27359;-79
2023/01/22 07:36:28;;;;;;;2.50;2.30;;;4.70;96.20;;;;;;933532;149;27459;-79
2023/01/22 07:38:54;;;;;;;2.40;2.20;;;4.70;96.30;;;;;;919699;152;27505;-79
2023/01/22 07:41:21;;;;;;;2.50;2.30;;;4.80;96.60;;;;;;934567;149;27352;-79
2023/01/22 07:43:52;;;;;;;2.20;2.10;;;4.80;96.90;;;;;;935808;149;27421;-79
2023/01/22 07:46:17;;;;;;;3.10;2.30;;;4.90;97.10;;;;;;934148;149;27376;-79
2023/01/22 07:48:44;;;;;;;2.67;2.17;;;5.00;97.50;;;;;;931830;150;27348;-79
2023/01/22 07:51:11;;;;;;;2.50;2.30;;;5.20;98.00;;;;;;933809;151;27434;-79
2023/01/22 07:53:37;;;;;;;2.00;1.90;;;5.40;98.40;;;;;;934764;149;27509;-79
2023/01/22 07:56:04;;;;;;;2.10;2.00;;;5.60;98.70;;;;;;934596;150;27361;-80
2023/01/22 07:58:30;;;;;;;1.90;1.80;;;5.80;99.20;;;;;;934951;149;27437;-80
2023/01/22 08:00:57;;;;;;;2.57;2.37;;;6.20;99.50;;;;;;934071;149;27390;-80
2023/01/22 08:03:23;;;;;;;2.10;2.00;;;6.50;99.40;;;;;;935234;149;27404;-80
2023/01/22 08:05:50;;;;;;;2.37;2.17;;;6.90;99.20;;;;;;935672;149;27410;-80
2023/01/22 08:08:16;;;;;;;1.90;1.80;;;7.10;98.00;;;;;;935302;149;27359;-80
2023/01/22 08:10:43;;;;;;;2.27;2.17;;;7.40;96.30;;;;;;911800;153;27368;-80
2023/01/22 08:13:09;;;;;;;2.13;1.97;;;7.50;94.50;;;;;;920138;152;27345;-80
2023/01/22 08:15:36;;;;;;;2.90;2.03;;;7.50;93.10;;;;;;927187;150;27434;-79
2023/01/22 08:18:03;;;;;;;2.20;2.00;;;7.50;92.20;;;;;;926964;150;27299;-80
2023/01/22 08:20:29;;;;;;;2.10;2.00;;;7.50;91.60;;;;;;927252;150;27362;-80
2023/01/22 08:22:58;;;;;;;2.20;2.00;;;7.30;91.30;;;;;;927016;150;27331;-80
2023/01/22 08:25:25;;;;;;;2.23;1.93;;;7.20;91.10;;;;;;927104;150;27491;-80
2023/01/22 08:27:52;;;;;;;2.17;2.00;;;7.10;91.10;;;;;;926848;150;27384;-80
2023/01/22 08:30:18;;;;;;;2.40;2.20;;;7.00;91.20;;;;;;927894;150;27362;-80
2023/01/22 08:32:45;;;;;;;2.30;2.20;;;6.90;91.30;;;;;;928318;150;28298;-80
2023/01/22 08:35:11;;;;;;;2.40;2.23;;;6.80;91.40;;;;;;927688;150;27305;-79
2023/01/22 08:37:38;;;;;;;2.00;1.90;;;6.70;91.40;;;;;;927686;150;27439;-79
2023/01/22 08:40:05;;;;;;;2.10;2.00;;;6.70;91.60;;;;;;927780;150;27358;-80
2023/01/22 08:42:31;;;;;;;2.20;2.00;;;6.60;91.60;;;;;;927228;150;27388;-80
2023/01/22 08:44:58;;;;;;;2.60;2.40;;;6.60;91.80;;;;;;926161;150;27415;-80
2023/01/22 08:47:25;;;;;;;2.50;2.30;;;6.50;91.90;;;;;;926642;150;27368;-80
2023/01/22 08:49:51;;;;;;;2.07;1.97;;;6.50;92.00;;;;;;926947;151;27721;-80
2023/01/22 08:52:18;;;;;;;2.90;2.30;;;6.40;92.00;;;;;;932585;149;27380;-80
2023/01/22 08:54:44;;;;;;;2.70;2.50;;;6.40;92.20;;;;;;938304;149;27462;-80
2023/01/22 08:57:11;;;;;;;2.43;2.33;;;6.40;92.00;;;;;;937697;149;27398;-80
2023/01/22 08:59:37;;;;;;;2.47;2.37;;;6.30;92.00;;;;;;937145;149;27412;-79
2023/01/22 09:02:04;;;;;;;2.33;2.23;;;6.30;92.10;;;;;;939865;149;27325;-79
2023/01/22 09:04:31;;;;;;;2.57;2.37;;;6.30;92.20;;;;;;938345;149;27372;-80
2023/01/22 09:06:57;;;;;;;3.00;2.80;;;6.20;92.20;;;;;;938252;149;27304;-80
2023/01/22 09:09:24;;;;;;;2.93;2.63;;;6.20;92.30;;;;;;938232;149;27353;-80
2023/01/22 09:11:50;;;;;;;3.03;2.83;;;6.20;92.30;;;;;;938390;149;27412;-80
2023/01/22 09:14:17;;;;;;;2.70;2.50;;;6.20;92.70;;;;;;938452;149;27359;-79
2023/01/22 09:16:44;;;;;;;2.70;2.50;;;6.20;92.30;;;;;;940634;149;27343;-79
2023/01/22 09:19:10;;;;;;;2.73;2.53;;;6.10;92.30;;;;;;940765;149;27349;-80
2023/01/22 09:21:37;;;;;;;3.50;2.90;;;6.10;92.30;;;;;;940252;149;27423;-80
2023/01/22 09:24:03;;;;;;;2.97;2.77;;;6.10;92.30;;;;;;941404;149;27319;-80
2023/01/22 09:26:31;;;;;;;3.03;2.83;;;6.10;92.30;;;;;;940184;149;27346;-79
2023/01/22 09:28:56;;;;;;;2.80;2.60;;;6.10;92.30;;;;;;939772;149;27359;-80
2023/01/22 09:31:23;;;;;;;2.40;2.20;;;6.10;92.30;;;;;;940876;149;27327;-80
2023/01/22 09:33:50;;;;;;;2.90;2.60;;;6.00;92.60;;;;;;940338;149;27326;-80
2023/01/22 09:36:16;;;;;;;2.37;2.17;;;6.00;92.30;;;;;;940810;149;27303;-80
2023/01/22 09:38:43;;;;;;;2.63;2.43;;;6.00;92.30;;;;;;942635;149;28810;-80
2023/01/22 09:41:30;;;;;;;2.60;2.40;;;6.00;92.40;;;;;;941002;149;27326;-79
2023/01/22 09:43:57;;;;;;;2.73;2.53;;;6.00;92.40;;;;;;940267;149;27358;-79
2023/01/22 09:46:30;;;;;;;2.73;2.53;;;5.90;92.50;;;;;;940434;149;27407;-80
2023/01/22 09:48:56;;;;;;;2.63;2.43;;;5.90;92.60;;;;;;925713;149;27330;-79
2023/01/22 09:51:23;;;;;;;2.40;2.30;;;5.90;92.70;;;;;;941400;149;27849;-79
2023/01/22 09:53:52;;;;;;;2.60;2.40;;;5.90;92.70;;;;;;951324;147;27361;-80
2023/01/22 09:56:22;;;;;;;2.73;2.50;;;5.90;92.80;;;;;;952884;147;27345;-79
2023/01/22 09:58:48;;;;;;;2.60;2.40;;;5.90;93.00;;;;;;953473;147;27423;-80
2023/01/22 10:01:15;;;;;;;2.53;2.33;;;5.90;93.30;;;;;;953615;147;27366;-80
2023/01/22 10:03:50;;;;;;;2.53;2.33;;;6.00;93.50;;;;;;953056;147;27298;-80
2023/01/22 10:06:21;;;;;;;2.40;2.30;;;6.00;93.60;;;;;;951721;147;27271;-80
2023/01/22 10:08:52;;;;;;;2.70;2.50;;;6.10;93.70;;;;;;953137;147;27417;-80
2023/01/22 10:11:19;;;;;;;2.97;2.73;;;6.10;93.80;;;;;;951576;147;27469;-79
2023/01/22 10:13:45;;;;;;;2.77;2.57;;;6.20;93.80;;;;;;951746;148;27278;-80
2023/01/22 10:16:12;;;;;;;2.90;2.70;;;6.20;93.80;;;;;;951402;148;27426;-80
2023/01/22 10:18:45;;;;;;;3.37;3.10;;;6.30;93.80;;;;;;952360;148;27329;-80
2023/01/22 10:21:23;;;;;;;3.43;3.13;;;6.40;93.70;;;;;;950778;147;27382;-80
2023/01/22 10:23:50;;;;;;;4.53;4.13;;;6.40;93.70;;;;;;951478;147;27350;-81
2023/01/22 10:26:23;;;;;;;4.20;3.80;;;6.50;93.80;;;;;;951566;147;27394;-79
2023/01/22 10:28:45;;;;;;;6.00;4.50;;;6.60;93.80;;;;;;952110;148;27354;-79
2023/01/22 10:31:27;;;;;;;4.30;3.53;;;6.60;93.70;;;;;;952752;148;27463;-78
2023/01/22 10:33:57;;;;;;;3.57;3.17;;;6.70;93.40;;;;;;952055;148;27348;-77
2023/01/22 10:36:23;;;;;;;4.87;3.70;;;6.70;93.20;;;;;;950908;148;27302;-79
2023/01/22 10:38:50;;;;;;;5.90;4.50;;;6.80;93.30;;;;;;951414;148;27310;-80
2023/01/22 10:41:16;;;;;;;5.03;4.43;;;6.80;93.00;;;;;;951623;148;27296;-79
2023/01/22 10:43:43;;;;;;;4.57;4.17;;;6.90;92.90;;;;;;934603;150;27577;-80
2023/01/22 10:46:21;;;;;;;3.07;2.77;;;6.90;92.70;;;;;;952413;147;27329;-79
2023/01/22 10:49:04;;;;;;;2.83;2.63;;;6.90;92.90;;;;;;936128;150;27378;-79
2023/01/22 10:51:31;;;;;;;2.27;2.17;;;6.90;92.50;;;;;;933903;151;27398;-79
2023/01/22 10:53:56;;;;;;;2.70;2.50;;;7.00;92.50;;;;;;930325;150;27478;-79
2023/01/22 10:56:34;;;;;;;2.43;2.33;;;7.00;92.60;;;;;;930190;151;27317;-79
2023/01/22 10:59:22;;;;;;;2.60;2.40;;;7.00;92.40;;;;;;947032;148;27446;-79
2023/01/22 11:01:49;;;;;;;2.77;2.57;;;7.00;92.30;;;;;;946866;148;27347;-79
2023/01/22 11:04:22;;;;;;;2.60;2.40;;;7.10;92.20;;;;;;946621;148;27421;-79
2023/01/22 11:06:48;;;;;;;2.50;2.30;;;7.10;92.10;;;;;;945502;148;27350;-79
2023/01/22 11:09:20;;;;;;;2.80;2.40;;;7.10;92.10;;;;;;946966;148;27382;-79
2023/01/22 11:11:47;;;;;;;2.83;2.63;;;7.10;91.90;;;;;;946653;148;27442;-79
2023/01/22 11:14:22;;;;;;;2.87;2.67;;;7.10;91.90;;;;;;945721;149;27489;-79
2023/01/22 11:16:48;;;;;;;2.97;2.77;;;7.10;91.70;;;;;;946863;148;27388;-78
2023/01/22 11:19:15;;;;;;;2.47;2.37;;;7.10;91.70;;;;;;947166;149;27342;-78
2023/01/22 11:21:45;;;;;;;2.30;2.10;;;7.10;91.70;;;;;;947150;149;27440;-78
2023/01/22 11:24:14;;;;;;;2.20;2.10;;;7.10;91.80;;;;;;947518;148;27380;-78
2023/01/22 11:26:50;;;;;;;2.50;2.30;;;7.10;91.80;;;;;;945504;148;27374;-78
2023/01/22 11:29:35;;;;;;;2.70;2.50;;;7.10;91.90;;;;;;946455;148;27305;-78
2023/01/22 11:32:02;;;;;;;2.70;2.50;;;7.20;92.10;;;;;;925338;151;27440;-78
2023/01/22 11:34:43;;;;;;;2.53;2.33;;;7.20;92.10;;;;;;944014;148;27404;-78
2023/01/22 11:37:13;;;;;;;2.90;2.60;;;7.30;91.90;;;;;;930165;151;27382;-78
2023/01/22 11:39:42;;;;;;;2.67;2.47;;;7.30;91.70;;;;;;947729;148;27807;-78
2023/01/22 11:42:29;;;;;;;3.33;3.03;;;7.30;91.60;;;;;;945194;148;27318;-78
2023/01/22 11:45:02;;;;;;;3.00;2.80;;;7.30;91.60;;;;;;945377;148;27419;-80
2023/01/22 11:47:53;;;;;;;3.33;3.03;;;7.40;91.50;;;;;;947057;148;27475;-80
2023/01/22 11:50:20;;;;;;;2.83;2.63;;;7.40;91.30;;;;;;945336;148;27350;-78
2023/01/22 11:53:08;;;;;;;3.43;3.17;;;7.40;91.30;;;;;;945812;148;27370;-78
2023/01/22 11:56:02;;;;;;;3.27;2.97;;;7.40;91.30;;;;;;945655;148;28030;-78
2023/01/22 11:58:56;;;;;;;3.20;2.90;;;7.40;91.20;;;;;;947549;148;27381;-78
2023/01/22 12:01:41;;;;;;;2.87;2.67;;;7.40;91.10;;;;;;947472;148;27333;-78
2023/01/22 12:04:25;;;;;;;2.70;2.50;;;7.40;91.10;;;;;;945612;148;27383;-78
2023/01/22 12:07:16;;;;;;;2.97;2.77;;;7.40;91.10;;;;;;945728;148;27344;-78
2023/01/22 12:09:49;;;;;;;2.77;2.57;;;7.40;91.00;;;;;;946162;148;27384;-78
2023/01/22 12:12:21;;;;;;;2.57;2.37;;;7.40;90.90;;;;;;945731;149;28003;-78
2023/01/22 12:15:05;;;;;;;2.43;2.27;;;7.40;90.90;;;;;;945195;148;27294;-79
2023/01/22 12:17:44;;;;;;;2.70;2.50;;;7.50;90.90;;;;;;944654;148;27359;-79
2023/01/22 12:20:16;;;;;;;2.80;2.60;;;7.50;90.90;;;;;;944996;148;27475;-79
2023/01/22 12:22:51;;;;;;;2.90;2.70;;;7.50;90.90;;;;;;946450;148;27381;-79
2023/01/22 12:25:39;;;;;;;2.60;2.40;;;7.50;90.80;;;;;;934823;148;27264;-79
2023/01/22 12:28:15;;;;;;;2.33;2.13;;;7.50;90.80;;;;;;946300;148;27315;-79
2023/01/22 12:30:42;;;;;;;2.40;2.23;;;7.50;90.70;;;;;;946421;148;27392;-79
2023/01/22 12:33:08;;;;;;;2.40;2.20;;;7.50;90.70;;;;;;945416;148;27815;-79
2023/01/22 12:35:35;;;;;;;2.10;2.00;;;7.60;90.40;;;;;;945458;148;27462;-78
2023/01/22 12:38:10;;;;;;;2.60;2.40;;;7.60;90.10;;;;;;945185;149;27275;-79
2023/01/22 12:41:01;;;;;;;2.60;2.40;;;7.60;90.30;;;;;;943638;148;27374;-79
2023/01/22 12:43:46;;;;;;;2.60;2.40;;;7.60;90.40;;;;;;946249;149;27358;-78
2023/01/22 12:46:25;;;;;;;2.57;2.37;;;7.60;90.30;;;;;;946790;148;27365;-78
2023/01/22 12:48:54;;;;;;;2.37;2.17;;;7.60;90.20;;;;;;945372;148;28499;-79
2023/01/22 12:51:23;;;;;;;2.73;2.53;;;7.60;90.00;;;;;;946394;148;27359;-79
2023/01/22 12:53:50;;;;;;;3.23;2.20;;;7.60;89.80;;;;;;946201;149;27395;-79
2023/01/22 12:56:17;;;;;;;2.20;2.10;;;7.60;89.60;;;;;;946583;148;27370;-79
2023/01/22 12:58:43;;;;;;;2.70;2.50;;;7.60;89.70;;;;;;944032;148;27343;-78
2023/01/22 13:01:13;;;;;;;2.43;2.33;;;7.60;90.00;;;;;;947498;151;27411;-79
2023/01/22 13:03:39;;;;;;;2.70;2.50;;;7.60;90.00;;;;;;946881;148;27346;-79
2023/01/22 13:06:18;;;;;;;2.37;2.20;;;7.60;89.90;;;;;;946307;148;27302;-79
2023/01/22 13:08:45;;;;;;;3.10;2.90;;;7.60;89.70;;;;;;946614;148;28000;-78
2023/01/22 13:11:11;;;;;;;3.27;2.80;;;7.60;89.50;;;;;;946699;148;27355;-79